sensor_id;sensor_type;location;lat;lon;timestamp;P1;durP1;ratioP1;P2;durP2;ratioP2
21148;SDS011;10732;51.472;6.466;2023-03-14T00:00:13;7.78;;;2.17;;
21148;SDS011;10732;51.472;6.466;2023-03-14T00:02:40;6.55;;;2.22;;
21148;SDS011;10732;51.472;6.466;2023-03-14T00:05:06;7.22;;;1.92;;
21148;SDS011;10732;51.472;6.466;2023-03-14T00:07:33;6.97;;;2.17;;
21148;SDS011;10732;51.472;6.466;2023-03-14T00:10:07;5.70;;;2.15;;
21148;SDS011;10732;51.472;6.466;2023-03-14T00:12:34;6.25;;;2.15;;
21148;SDS011;10732;51.472;6.466;2023-03-14T00:15:00;7.65;;;1.92;;
21148;SDS011;10732;51.472;6.466;2023-03-14T00:17:28;4.75;;;1.77;;
21148;SDS011;10732;51.472;6.466;2023-03-14T00:19:54;10.88;;;2.42;;
21148;SDS011;10732;51.472;6.466;2023-03-14T00:22:20;9.32;;;2.25;;
21148;SDS011;10732;51.472;6.466;2023-03-14T00:24:46;7.35;;;1.92;;
21148;SDS011;10732;51.472;6.466;2023-03-14T00:27:12;8.13;;;2.38;;
21148;SDS011;10732;51.472;6.466;2023-03-14T00:29:37;7.60;;;2.20;;
21148;SDS011;10732;51.472;6.466;2023-03-14T00:32:03;5.43;;;2.33;;
21148;SDS011;10732;51.472;6.466;2023-03-14T00:34:29;9.32;;;2.28;;
21148;SDS011;10732;51.472;6.466;2023-03-14T00:36:56;5.28;;;2.30;;
21148;SDS011;10732;51.472;6.466;2023-03-14T00:39:22;7.97;;;2.53;;
21148;SDS011;10732;51.472;6.466;2023-03-14T00:41:48;7.38;;;2.20;;
21148;SDS011;10732;51.472;6.466;2023-03-14T00:44:13;7.55;;;2.17;;
21148;SDS011;10732;51.472;6.466;2023-03-14T00:46:39;6.07;;;2.00;;
21148;SDS011;10732;51.472;6.466;2023-03-14T00:49:04;6.32;;;2.08;;
21148;SDS011;10732;51.472;6.466;2023-03-14T00:51:30;8.07;;;2.13;;
21148;SDS011;10732;51.472;6.466;2023-03-14T00:53:56;5.50;;;2.03;;
21148;SDS011;10732;51.472;6.466;2023-03-14T00:56:21;5.18;;;2.25;;
21148;SDS011;10732;51.472;6.466;2023-03-14T00:58:47;8.95;;;2.22;;
21148;SDS011;10732;51.472;6.466;2023-03-14T01:01:14;8.65;;;2.10;;
21148;SDS011;10732;51.472;6.466;2023-03-14T01:03:42;6.22;;;1.90;;
21148;SDS011;10732;51.472;6.466;2023-03-14T01:06:17;7.38;;;1.98;;
21148;SDS011;10732;51.472;6.466;2023-03-14T01:08:45;6.78;;;1.83;;
21148;SDS011;10732;51.472;6.466;2023-03-14T01:11:13;7.65;;;2.20;;
21148;SDS011;10732;51.472;6.466;2023-03-14T01:13:44;6.05;;;1.65;;
21148;SDS011;10732;51.472;6.466;2023-03-14T01:16:10;8.00;;;2.03;;
21148;SDS011;10732;51.472;6.466;2023-03-14T01:18:38;7.40;;;1.83;;
21148;SDS011;10732;51.472;6.466;2023-03-14T01:21:09;10.43;;;1.63;;
21148;SDS011;10732;51.472;6.466;2023-03-14T01:23:56;7.72;;;2.10;;
21148;SDS011;10732;51.472;6.466;2023-03-14T01:26:24;6.80;;;2.00;;
21148;SDS011;10732;51.472;6.466;2023-03-14T01:28:52;10.32;;;1.80;;
21148;SDS011;10732;51.472;6.466;2023-03-14T01:31:18;7.63;;;1.83;;
21148;SDS011;10732;51.472;6.466;2023-03-14T01:33:45;7.20;;;2.03;;
21148;SDS011;10732;51.472;6.466;2023-03-14T01:36:11;7.75;;;1.92;;
21148;SDS011;10732;51.472;6.466;2023-03-14T01:38:37;6.65;;;1.50;;
21148;SDS011;10732;51.472;6.466;2023-03-14T01:41:03;9.52;;;1.90;;
21148;SDS011;10732;51.472;6.466;2023-03-14T01:43:30;6.03;;;1.38;;
21148;SDS011;10732;51.472;6.466;2023-03-14T01:51:12;7.28;;;1.77;;
21148;SDS011;10732;51.472;6.466;2023-03-14T01:53:42;5.40;;;1.55;;
21148;SDS011;10732;51.472;6.466;2023-03-14T01:56:09;9.25;;;1.40;;
21148;SDS011;10732;51.472;6.466;2023-03-14T01:58:38;8.52;;;1.85;;
21148;SDS011;10732;51.472;6.466;2023-03-14T02:01:06;7.03;;;1.48;;
21148;SDS011;10732;51.472;6.466;2023-03-14T02:03:35;6.28;;;1.50;;
21148;SDS011;10732;51.472;6.466;2023-03-14T02:06:12;6.20;;;1.63;;
21148;SDS011;10732;51.472;6.466;2023-03-14T02:08:42;5.50;;;1.35;;
21148;SDS011;10732;51.472;6.466;2023-03-14T02:11:12;4.32;;;1.48;;
21148;SDS011;10732;51.472;6.466;2023-03-14T02:13:38;6.60;;;1.67;;
21148;SDS011;10732;51.472;6.466;2023-03-14T02:16:04;5.28;;;1.60;;
21148;SDS011;10732;51.472;6.466;2023-03-14T02:18:30;8.20;;;1.38;;
21148;SDS011;10732;51.472;6.466;2023-03-14T02:20:58;4.75;;;1.40;;
21148;SDS011;10732;51.472;6.466;2023-03-14T02:26:39;6.88;;;1.60;;
21148;SDS011;10732;51.472;6.466;2023-03-14T02:29:09;10.00;;;1.90;;
21148;SDS011;10732;51.472;6.466;2023-03-14T02:31:34;5.35;;;1.48;;
21148;SDS011;10732;51.472;6.466;2023-03-14T02:34:00;7.75;;;1.92;;
21148;SDS011;10732;51.472;6.466;2023-03-14T02:36:27;7.55;;;1.70;;
21148;SDS011;10732;51.472;6.466;2023-03-14T02:38:56;4.93;;;1.60;;
21148;SDS011;10732;51.472;6.466;2023-03-14T02:41:32;8.38;;;1.60;;
21148;SDS011;10732;51.472;6.466;2023-03-14T02:43:58;8.80;;;2.58;;
21148;SDS011;10732;51.472;6.466;2023-03-14T02:46:24;4.95;;;1.40;;
21148;SDS011;10732;51.472;6.466;2023-03-14T02:51:21;7.13;;;1.55;;
21148;SDS011;10732;51.472;6.466;2023-03-14T02:53:48;9.70;;;2.17;;
21148;SDS011;10732;51.472;6.466;2023-03-14T02:56:14;7.30;;;1.83;;
21148;SDS011;10732;51.472;6.466;2023-03-14T02:58:39;9.02;;;1.80;;
21148;SDS011;10732;51.472;6.466;2023-03-14T03:01:05;7.90;;;1.75;;
21148;SDS011;10732;51.472;6.466;2023-03-14T03:03:31;6.03;;;1.70;;
21148;SDS011;10732;51.472;6.466;2023-03-14T03:05:57;8.38;;;2.00;;
21148;SDS011;10732;51.472;6.466;2023-03-14T03:08:24;9.38;;;2.22;;
21148;SDS011;10732;51.472;6.466;2023-03-14T03:10:51;8.23;;;2.00;;
21148;SDS011;10732;51.472;6.466;2023-03-14T03:13:17;8.70;;;2.03;;
21148;SDS011;10732;51.472;6.466;2023-03-14T03:15:43;9.35;;;2.05;;
21148;SDS011;10732;51.472;6.466;2023-03-14T03:18:09;9.30;;;2.28;;
21148;SDS011;10732;51.472;6.466;2023-03-14T03:20:34;8.23;;;1.90;;
21148;SDS011;10732;51.472;6.466;2023-03-14T03:23:00;11.05;;;1.90;;
21148;SDS011;10732;51.472;6.466;2023-03-14T03:25:26;9.80;;;2.20;;
21148;SDS011;10732;51.472;6.466;2023-03-14T03:27:52;10.63;;;2.47;;
21148;SDS011;10732;51.472;6.466;2023-03-14T03:30:18;8.82;;;1.90;;
21148;SDS011;10732;51.472;6.466;2023-03-14T03:32:44;10.88;;;2.03;;
21148;SDS011;10732;51.472;6.466;2023-03-14T03:35:10;12.30;;;2.05;;
21148;SDS011;10732;51.472;6.466;2023-03-14T03:37:36;7.20;;;1.98;;
21148;SDS011;10732;51.472;6.466;2023-03-14T03:40:02;7.18;;;1.92;;
21148;SDS011;10732;51.472;6.466;2023-03-14T03:42:30;7.78;;;1.58;;
21148;SDS011;10732;51.472;6.466;2023-03-14T03:44:57;11.18;;;2.17;;
21148;SDS011;10732;51.472;6.466;2023-03-14T03:47:23;9.95;;;1.90;;
21148;SDS011;10732;51.472;6.466;2023-03-14T03:49:48;5.63;;;1.70;;
21148;SDS011;10732;51.472;6.466;2023-03-14T03:52:14;7.38;;;1.83;;
21148;SDS011;10732;51.472;6.466;2023-03-14T03:54:40;9.43;;;1.90;;
21148;SDS011;10732;51.472;6.466;2023-03-14T03:57:05;6.78;;;1.73;;
21148;SDS011;10732;51.472;6.466;2023-03-14T03:59:31;8.68;;;2.05;;
21148;SDS011;10732;51.472;6.466;2023-03-14T04:01:56;8.73;;;2.13;;
21148;SDS011;10732;51.472;6.466;2023-03-14T04:04:22;9.30;;;2.30;;
21148;SDS011;10732;51.472;6.466;2023-03-14T04:06:49;7.85;;;2.13;;
21148;SDS011;10732;51.472;6.466;2023-03-14T04:09:14;7.55;;;1.90;;
21148;SDS011;10732;51.472;6.466;2023-03-14T04:11:40;6.90;;;1.83;;
21148;SDS011;10732;51.472;6.466;2023-03-14T04:14:06;8.82;;;2.60;;
21148;SDS011;10732;51.472;6.466;2023-03-14T04:16:32;9.98;;;2.08;;
21148;SDS011;10732;51.472;6.466;2023-03-14T04:18:58;7.88;;;2.30;;
21148;SDS011;10732;51.472;6.466;2023-03-14T04:21:24;5.30;;;1.60;;
21148;SDS011;10732;51.472;6.466;2023-03-14T04:23:50;8.00;;;1.80;;
21148;SDS011;10732;51.472;6.466;2023-03-14T04:26:15;4.80;;;1.42;;
21148;SDS011;10732;51.472;6.466;2023-03-14T04:28:41;7.68;;;1.70;;
21148;SDS011;10732;51.472;6.466;2023-03-14T04:31:11;7.10;;;1.70;;
21148;SDS011;10732;51.472;6.466;2023-03-14T04:33:41;6.60;;;1.70;;
21148;SDS011;10732;51.472;6.466;2023-03-14T04:36:06;6.85;;;1.52;;
21148;SDS011;10732;51.472;6.466;2023-03-14T04:38:33;5.55;;;1.33;;
21148;SDS011;10732;51.472;6.466;2023-03-14T04:40:59;3.63;;;1.38;;
21148;SDS011;10732;51.472;6.466;2023-03-14T04:43:25;3.42;;;1.30;;
21148;SDS011;10732;51.472;6.466;2023-03-14T04:45:55;4.45;;;1.27;;
21148;SDS011;10732;51.472;6.466;2023-03-14T04:48:22;3.70;;;1.05;;
21148;SDS011;10732;51.472;6.466;2023-03-14T04:50:48;5.03;;;1.00;;
21148;SDS011;10732;51.472;6.466;2023-03-14T04:53:14;5.25;;;1.08;;
21148;SDS011;10732;51.472;6.466;2023-03-14T04:55:41;4.75;;;1.10;;
21148;SDS011;10732;51.472;6.466;2023-03-14T04:58:06;2.25;;;0.77;;
21148;SDS011;10732;51.472;6.466;2023-03-14T05:00:32;4.35;;;1.10;;
21148;SDS011;10732;51.472;6.466;2023-03-14T05:02:58;2.25;;;0.95;;
21148;SDS011;10732;51.472;6.466;2023-03-14T05:05:23;2.33;;;1.00;;
21148;SDS011;10732;51.472;6.466;2023-03-14T05:07:49;2.83;;;0.90;;
21148;SDS011;10732;51.472;6.466;2023-03-14T05:10:15;1.63;;;0.80;;
21148;SDS011;10732;51.472;6.466;2023-03-14T05:12:41;2.50;;;0.93;;
21148;SDS011;10732;51.472;6.466;2023-03-14T05:15:06;5.18;;;1.05;;
21148;SDS011;10732;51.472;6.466;2023-03-14T05:17:33;2.40;;;0.93;;
21148;SDS011;10732;51.472;6.466;2023-03-14T05:19:58;3.08;;;0.80;;
21148;SDS011;10732;51.472;6.466;2023-03-14T05:22:24;5.40;;;0.85;;
21148;SDS011;10732;51.472;6.466;2023-03-14T05:24:50;3.65;;;0.95;;
21148;SDS011;10732;51.472;6.466;2023-03-14T05:27:16;3.65;;;1.25;;
21148;SDS011;10732;51.472;6.466;2023-03-14T05:29:41;3.88;;;1.25;;
21148;SDS011;10732;51.472;6.466;2023-03-14T05:32:07;5.38;;;1.30;;
21148;SDS011;10732;51.472;6.466;2023-03-14T05:34:32;1.95;;;1.17;;
21148;SDS011;10732;51.472;6.466;2023-03-14T05:36:58;2.90;;;1.30;;
21148;SDS011;10732;51.472;6.466;2023-03-14T05:39:24;3.75;;;1.30;;
21148;SDS011;10732;51.472;6.466;2023-03-14T05:41:49;3.67;;;1.30;;
21148;SDS011;10732;51.472;6.466;2023-03-14T05:44:16;4.53;;;1.40;;
21148;SDS011;10732;51.472;6.466;2023-03-14T05:46:41;2.83;;;1.40;;
21148;SDS011;10732;51.472;6.466;2023-03-14T05:49:07;4.93;;;1.60;;
21148;SDS011;10732;51.472;6.466;2023-03-14T05:51:33;1.75;;;1.20;;
21148;SDS011;10732;51.472;6.466;2023-03-14T05:53:58;3.17;;;1.35;;
21148;SDS011;10732;51.472;6.466;2023-03-14T05:56:24;3.08;;;1.38;;
21148;SDS011;10732;51.472;6.466;2023-03-14T05:58:49;3.28;;;1.50;;
21148;SDS011;10732;51.472;6.466;2023-03-14T06:01:15;5.13;;;1.55;;
21148;SDS011;10732;51.472;6.466;2023-03-14T06:03:41;4.55;;;1.58;;
21148;SDS011;10732;51.472;6.466;2023-03-14T06:06:06;4.10;;;1.75;;
21148;SDS011;10732;51.472;6.466;2023-03-14T06:08:32;3.20;;;1.83;;
21148;SDS011;10732;51.472;6.466;2023-03-14T06:10:57;3.72;;;1.73;;
21148;SDS011;10732;51.472;6.466;2023-03-14T06:13:23;3.08;;;1.80;;
21148;SDS011;10732;51.472;6.466;2023-03-14T06:15:49;3.10;;;2.00;;
21148;SDS011;10732;51.472;6.466;2023-03-14T06:18:14;5.68;;;2.33;;
21148;SDS011;10732;51.472;6.466;2023-03-14T06:20:40;4.10;;;2.35;;
21148;SDS011;10732;51.472;6.466;2023-03-14T06:23:06;3.70;;;2.67;;
21148;SDS011;10732;51.472;6.466;2023-03-14T06:25:32;6.80;;;2.58;;
21148;SDS011;10732;51.472;6.466;2023-03-14T06:27:58;3.17;;;2.50;;
21148;SDS011;10732;51.472;6.466;2023-03-14T06:30:24;4.03;;;2.38;;
21148;SDS011;10732;51.472;6.466;2023-03-14T06:32:49;4.88;;;2.60;;
21148;SDS011;10732;51.472;6.466;2023-03-14T06:35:15;4.07;;;2.50;;
21148;SDS011;10732;51.472;6.466;2023-03-14T06:37:44;3.40;;;2.40;;
21148;SDS011;10732;51.472;6.466;2023-03-14T06:40:10;2.80;;;2.50;;
21148;SDS011;10732;51.472;6.466;2023-03-14T06:42:41;5.07;;;2.70;;
21148;SDS011;10732;51.472;6.466;2023-03-14T06:45:08;2.78;;;2.40;;
21148;SDS011;10732;51.472;6.466;2023-03-14T06:47:34;4.05;;;2.30;;
21148;SDS011;10732;51.472;6.466;2023-03-14T06:49:59;3.75;;;2.08;;
21148;SDS011;10732;51.472;6.466;2023-03-14T06:52:25;2.78;;;2.08;;
21148;SDS011;10732;51.472;6.466;2023-03-14T06:54:50;4.07;;;2.10;;
21148;SDS011;10732;51.472;6.466;2023-03-14T06:57:16;3.05;;;2.22;;
21148;SDS011;10732;51.472;6.466;2023-03-14T06:59:41;3.03;;;2.30;;
21148;SDS011;10732;51.472;6.466;2023-03-14T07:02:09;2.83;;;2.60;;
21148;SDS011;10732;51.472;6.466;2023-03-14T07:04:36;5.80;;;2.67;;
21148;SDS011;10732;51.472;6.466;2023-03-14T07:07:02;5.03;;;2.80;;
21148;SDS011;10732;51.472;6.466;2023-03-14T07:09:28;2.85;;;2.60;;
21148;SDS011;10732;51.472;6.466;2023-03-14T07:11:53;3.13;;;2.50;;
21148;SDS011;10732;51.472;6.466;2023-03-14T07:14:19;3.03;;;2.72;;
21148;SDS011;10732;51.472;6.466;2023-03-14T07:16:44;2.80;;;2.50;;
21148;SDS011;10732;51.472;6.466;2023-03-14T07:19:10;3.45;;;2.50;;
21148;SDS011;10732;51.472;6.466;2023-03-14T07:21:35;3.03;;;2.33;;
21148;SDS011;10732;51.472;6.466;2023-03-14T07:24:01;2.88;;;2.17;;
21148;SDS011;10732;51.472;6.466;2023-03-14T07:26:27;3.50;;;2.00;;
21148;SDS011;10732;51.472;6.466;2023-03-14T07:28:52;2.53;;;1.90;;
21148;SDS011;10732;51.472;6.466;2023-03-14T07:31:18;2.70;;;2.05;;
21148;SDS011;10732;51.472;6.466;2023-03-14T07:33:44;2.53;;;2.17;;
21148;SDS011;10732;51.472;6.466;2023-03-14T07:36:09;1.90;;;1.77;;
21148;SDS011;10732;51.472;6.466;2023-03-14T07:38:35;4.30;;;2.20;;
21148;SDS011;10732;51.472;6.466;2023-03-14T07:41:01;2.80;;;1.60;;
21148;SDS011;10732;51.472;6.466;2023-03-14T07:43:28;2.53;;;1.83;;
21148;SDS011;10732;51.472;6.466;2023-03-14T07:45:54;2.20;;;1.65;;
21148;SDS011;10732;51.472;6.466;2023-03-14T07:48:19;3.28;;;1.77;;
21148;SDS011;10732;51.472;6.466;2023-03-14T07:50:49;1.83;;;1.40;;
21148;SDS011;10732;51.472;6.466;2023-03-14T07:53:16;2.10;;;1.73;;
21148;SDS011;10732;51.472;6.466;2023-03-14T07:55:41;1.67;;;1.42;;
21148;SDS011;10732;51.472;6.466;2023-03-14T07:58:07;3.03;;;1.50;;
21148;SDS011;10732;51.472;6.466;2023-03-14T08:00:32;2.42;;;1.42;;
21148;SDS011;10732;51.472;6.466;2023-03-14T08:02:58;2.30;;;1.40;;
21148;SDS011;10732;51.472;6.466;2023-03-14T08:05:23;1.50;;;1.40;;
21148;SDS011;10732;51.472;6.466;2023-03-14T08:07:49;2.35;;;1.40;;
21148;SDS011;10732;51.472;6.466;2023-03-14T08:10:15;1.50;;;1.40;;
21148;SDS011;10732;51.472;6.466;2023-03-14T08:12:47;2.33;;;1.33;;
21148;SDS011;10732;51.472;6.466;2023-03-14T08:15:18;1.70;;;1.30;;
21148;SDS011;10732;51.472;6.466;2023-03-14T08:17:44;1.25;;;1.00;;
21148;SDS011;10732;51.472;6.466;2023-03-14T08:20:10;1.10;;;0.82;;
21148;SDS011;10732;51.472;6.466;2023-03-14T08:22:37;0.90;;;0.90;;
21148;SDS011;10732;51.472;6.466;2023-03-14T08:25:03;1.45;;;0.90;;
21148;SDS011;10732;51.472;6.466;2023-03-14T08:27:29;0.80;;;0.77;;
21148;SDS011;10732;51.472;6.466;2023-03-14T08:29:54;0.80;;;0.80;;
21148;SDS011;10732;51.472;6.466;2023-03-14T08:32:20;1.23;;;0.93;;
21148;SDS011;10732;51.472;6.466;2023-03-14T08:34:47;0.80;;;0.80;;
21148;SDS011;10732;51.472;6.466;2023-03-14T08:37:13;2.33;;;1.10;;
21148;SDS011;10732;51.472;6.466;2023-03-14T08:39:38;2.72;;;1.15;;
21148;SDS011;10732;51.472;6.466;2023-03-14T08:42:04;2.35;;;1.10;;
21148;SDS011;10732;51.472;6.466;2023-03-14T08:44:29;1.20;;;1.10;;
21148;SDS011;10732;51.472;6.466;2023-03-14T08:46:55;1.90;;;0.80;;
21148;SDS011;10732;51.472;6.466;2023-03-14T08:49:20;1.40;;;0.50;;
21148;SDS011;10732;51.472;6.466;2023-03-14T08:51:46;0.68;;;0.60;;
21148;SDS011;10732;51.472;6.466;2023-03-14T08:54:12;1.25;;;0.52;;
21148;SDS011;10732;51.472;6.466;2023-03-14T08:56:37;0.70;;;0.50;;
21148;SDS011;10732;51.472;6.466;2023-03-14T08:59:03;0.60;;;0.55;;
21148;SDS011;10732;51.472;6.466;2023-03-14T09:01:30;2.42;;;0.85;;
21148;SDS011;10732;51.472;6.466;2023-03-14T09:03:55;2.05;;;0.60;;
21148;SDS011;10732;51.472;6.466;2023-03-14T09:06:21;0.80;;;0.80;;
21148;SDS011;10732;51.472;6.466;2023-03-14T09:08:47;0.60;;;0.60;;
21148;SDS011;10732;51.472;6.466;2023-03-14T09:11:12;2.25;;;0.70;;
21148;SDS011;10732;51.472;6.466;2023-03-14T09:13:38;2.17;;;0.80;;
21148;SDS011;10732;51.472;6.466;2023-03-14T09:16:04;0.90;;;0.70;;
21148;SDS011;10732;51.472;6.466;2023-03-14T09:18:30;1.80;;;1.00;;
21148;SDS011;10732;51.472;6.466;2023-03-14T09:20:56;1.55;;;1.05;;
21148;SDS011;10732;51.472;6.466;2023-03-14T09:23:21;1.98;;;1.05;;
21148;SDS011;10732;51.472;6.466;2023-03-14T09:25:47;1.83;;;1.20;;
21148;SDS011;10732;51.472;6.466;2023-03-14T09:28:12;2.92;;;1.60;;
21148;SDS011;10732;51.472;6.466;2023-03-14T09:30:38;1.83;;;1.30;;
21148;SDS011;10732;51.472;6.466;2023-03-14T09:33:04;2.17;;;1.70;;
21148;SDS011;10732;51.472;6.466;2023-03-14T09:35:30;3.15;;;2.05;;
21148;SDS011;10732;51.472;6.466;2023-03-14T09:37:55;2.13;;;1.67;;
21148;SDS011;10732;51.472;6.466;2023-03-14T09:40:21;3.25;;;1.88;;
21148;SDS011;10732;51.472;6.466;2023-03-14T09:42:50;3.20;;;2.05;;
21148;SDS011;10732;51.472;6.466;2023-03-14T09:45:18;2.08;;;1.70;;
21148;SDS011;10732;51.472;6.466;2023-03-14T09:47:46;2.05;;;1.70;;
21148;SDS011;10732;51.472;6.466;2023-03-14T09:50:15;3.55;;;2.20;;
21148;SDS011;10732;51.472;6.466;2023-03-14T09:52:43;2.03;;;1.75;;
21148;SDS011;10732;51.472;6.466;2023-03-14T09:55:15;3.03;;;1.67;;
21148;SDS011;10732;51.472;6.466;2023-03-14T09:57:46;2.30;;;1.63;;
21148;SDS011;10732;51.472;6.466;2023-03-14T10:00:15;1.73;;;1.45;;
21148;SDS011;10732;51.472;6.466;2023-03-14T10:02:54;1.70;;;1.55;;
21148;SDS011;10732;51.472;6.466;2023-03-14T10:05:22;2.08;;;1.40;;
21148;SDS011;10732;51.472;6.466;2023-03-14T10:07:49;2.25;;;1.25;;
21148;SDS011;10732;51.472;6.466;2023-03-14T10:10:16;1.73;;;1.40;;
21148;SDS011;10732;51.472;6.466;2023-03-14T10:12:45;1.80;;;1.40;;
21148;SDS011;10732;51.472;6.466;2023-03-14T10:15:24;1.77;;;1.38;;
21148;SDS011;10732;51.472;6.466;2023-03-14T10:17:59;2.13;;;1.20;;
21148;SDS011;10732;51.472;6.466;2023-03-14T10:20:35;2.55;;;1.17;;
21148;SDS011;10732;51.472;6.466;2023-03-14T10:25:29;1.75;;;1.10;;
21148;SDS011;10732;51.472;6.466;2023-03-14T10:27:56;2.75;;;1.10;;
21148;SDS011;10732;51.472;6.466;2023-03-14T10:31:04;5.60;;;1.20;;
21148;SDS011;10732;51.472;6.466;2023-03-14T10:33:12;3.30;;;1.20;;
21148;SDS011;10732;51.472;6.466;2023-03-14T10:35:59;2.63;;;1.00;;
21148;SDS011;10732;51.472;6.466;2023-03-14T10:38:31;4.10;;;1.10;;
21148;SDS011;10732;51.472;6.466;2023-03-14T10:40:58;2.97;;;1.23;;
21148;SDS011;10732;51.472;6.466;2023-03-14T10:43:31;4.78;;;1.45;;
21148;SDS011;10732;51.472;6.466;2023-03-14T10:45:59;2.05;;;1.00;;
21148;SDS011;10732;51.472;6.466;2023-03-14T10:48:39;3.65;;;1.20;;
21148;SDS011;10732;51.472;6.466;2023-03-14T10:51:12;2.05;;;0.90;;
21148;SDS011;10732;51.472;6.466;2023-03-14T10:53:45;2.80;;;1.08;;
21148;SDS011;10732;51.472;6.466;2023-03-14T10:56:13;2.75;;;0.98;;
21148;SDS011;10732;51.472;6.466;2023-03-14T10:58:42;2.58;;;1.10;;
21148;SDS011;10732;51.472;6.466;2023-03-14T11:01:15;2.33;;;0.70;;
21148;SDS011;10732;51.472;6.466;2023-03-14T11:03:49;3.10;;;0.80;;
21148;SDS011;10732;51.472;6.466;2023-03-14T11:06:36;3.92;;;0.85;;
21148;SDS011;10732;51.472;6.466;2023-03-14T11:09:07;4.20;;;0.85;;
21148;SDS011;10732;51.472;6.466;2023-03-14T11:11:56;2.13;;;0.70;;
21148;SDS011;10732;51.472;6.466;2023-03-14T11:14:50;2.10;;;0.90;;
21148;SDS011;10732;51.472;6.466;2023-03-14T11:17:46;3.20;;;1.40;;
21148;SDS011;10732;51.472;6.466;2023-03-14T11:20:25;1.25;;;0.82;;
21148;SDS011;10732;51.472;6.466;2023-03-14T11:23:16;2.70;;;0.88;;
21148;SDS011;10732;51.472;6.466;2023-03-14T11:25:49;3.53;;;1.00;;
21148;SDS011;10732;51.472;6.466;2023-03-14T11:36:09;3.15;;;1.20;;
21148;SDS011;10732;51.472;6.466;2023-03-14T11:38:46;4.13;;;1.10;;
21148;SDS011;10732;51.472;6.466;2023-03-14T11:41:36;3.50;;;1.00;;
21148;SDS011;10732;51.472;6.466;2023-03-14T11:44:39;4.60;;;1.15;;
21148;SDS011;10732;51.472;6.466;2023-03-14T11:47:06;3.28;;;1.33;;
21148;SDS011;10732;51.472;6.466;2023-03-14T11:49:47;3.92;;;1.20;;
21148;SDS011;10732;51.472;6.466;2023-03-14T11:54:52;3.75;;;1.15;;
21148;SDS011;10732;51.472;6.466;2023-03-14T11:57:51;3.95;;;1.00;;
21148;SDS011;10732;51.472;6.466;2023-03-14T12:00:24;5.68;;;1.15;;
21148;SDS011;10732;51.472;6.466;2023-03-14T12:13:36;7.32;;;1.90;;
21148;SDS011;10732;51.472;6.466;2023-03-14T12:16:04;6.57;;;1.15;;
21148;SDS011;10732;51.472;6.466;2023-03-14T12:18:33;7.35;;;1.50;;
21148;SDS011;10732;51.472;6.466;2023-03-14T12:21:03;9.85;;;2.00;;
21148;SDS011;10732;51.472;6.466;2023-03-14T12:23:53;8.95;;;1.88;;
21148;SDS011;10732;51.472;6.466;2023-03-14T12:26:21;13.35;;;2.30;;
21148;SDS011;10732;51.472;6.466;2023-03-14T12:34:26;14.77;;;2.30;;
21148;SDS011;10732;51.472;6.466;2023-03-14T12:42:42;13.10;;;2.60;;
21148;SDS011;10732;51.472;6.466;2023-03-14T12:45:29;14.32;;;3.13;;
21148;SDS011;10732;51.472;6.466;2023-03-14T12:48:03;16.17;;;2.92;;
21148;SDS011;10732;51.472;6.466;2023-03-14T12:56:34;15.25;;;2.85;;
21148;SDS011;10732;51.472;6.466;2023-03-14T12:59:21;16.30;;;2.60;;
21148;SDS011;10732;51.472;6.466;2023-03-14T13:01:55;11.05;;;2.85;;
21148;SDS011;10732;51.472;6.466;2023-03-14T13:07:33;16.13;;;3.25;;
21148;SDS011;10732;51.472;6.466;2023-03-14T13:13:21;12.13;;;2.67;;
21148;SDS011;10732;51.472;6.466;2023-03-14T13:18:09;10.77;;;2.35;;
21148;SDS011;10732;51.472;6.466;2023-03-14T13:20:38;16.98;;;3.22;;
21148;SDS011;10732;51.472;6.466;2023-03-14T13:23:27;13.30;;;2.53;;
21148;SDS011;10732;51.472;6.466;2023-03-14T13:25:55;13.68;;;2.85;;
21148;SDS011;10732;51.472;6.466;2023-03-14T13:28:21;15.57;;;3.03;;
21148;SDS011;10732;51.472;6.466;2023-03-14T13:30:48;16.10;;;3.20;;
21148;SDS011;10732;51.472;6.466;2023-03-14T13:33:23;13.00;;;3.22;;
21148;SDS011;10732;51.472;6.466;2023-03-14T13:35:53;20.25;;;3.47;;
21148;SDS011;10732;51.472;6.466;2023-03-14T13:38:24;14.55;;;3.20;;
21148;SDS011;10732;51.472;6.466;2023-03-14T13:40:53;15.75;;;2.45;;
21148;SDS011;10732;51.472;6.466;2023-03-14T13:46:14;11.00;;;2.40;;
21148;SDS011;10732;51.472;6.466;2023-03-14T13:48:48;12.23;;;2.20;;
21148;SDS011;10732;51.472;6.466;2023-03-14T13:51:17;11.45;;;2.47;;
21148;SDS011;10732;51.472;6.466;2023-03-14T13:53:46;12.63;;;2.95;;
21148;SDS011;10732;51.472;6.466;2023-03-14T13:56:14;9.57;;;2.38;;
21148;SDS011;10732;51.472;6.466;2023-03-14T13:58:42;13.68;;;2.00;;
21148;SDS011;10732;51.472;6.466;2023-03-14T14:01:18;10.23;;;2.10;;
21148;SDS011;10732;51.472;6.466;2023-03-14T14:03:54;10.23;;;2.17;;
21148;SDS011;10732;51.472;6.466;2023-03-14T14:08:55;13.40;;;2.20;;
21148;SDS011;10732;51.472;6.466;2023-03-14T14:11:33;7.70;;;2.00;;
21148;SDS011;10732;51.472;6.466;2023-03-14T14:14:26;9.52;;;2.50;;
21148;SDS011;10732;51.472;6.466;2023-03-14T14:16:56;6.45;;;1.80;;
21148;SDS011;10732;51.472;6.466;2023-03-14T14:19:24;11.60;;;2.42;;
21148;SDS011;10732;51.472;6.466;2023-03-14T14:21:52;7.55;;;1.80;;
21148;SDS011;10732;51.472;6.466;2023-03-14T14:24:19;8.10;;;2.22;;
21148;SDS011;10732;51.472;6.466;2023-03-14T14:26:50;7.03;;;2.08;;
21148;SDS011;10732;51.472;6.466;2023-03-14T14:29:25;8.75;;;2.10;;
21148;SDS011;10732;51.472;6.466;2023-03-14T14:31:59;6.95;;;2.00;;
21148;SDS011;10732;51.472;6.466;2023-03-14T14:34:44;9.13;;;1.98;;
21148;SDS011;10732;51.472;6.466;2023-03-14T14:37:18;7.10;;;1.92;;
21148;SDS011;10732;51.472;6.466;2023-03-14T14:39:49;11.13;;;2.20;;
21148;SDS011;10732;51.472;6.466;2023-03-14T14:42:21;11.02;;;1.95;;
21148;SDS011;10732;51.472;6.466;2023-03-14T14:44:52;8.60;;;2.03;;
21148;SDS011;10732;51.472;6.466;2023-03-14T14:47:20;5.05;;;1.70;;
21148;SDS011;10732;51.472;6.466;2023-03-14T14:49:47;7.72;;;1.63;;
21148;SDS011;10732;51.472;6.466;2023-03-14T14:52:21;6.72;;;1.70;;
21148;SDS011;10732;51.472;6.466;2023-03-14T14:54:58;7.47;;;1.90;;
21148;SDS011;10732;51.472;6.466;2023-03-14T14:57:26;9.25;;;2.00;;
21148;SDS011;10732;51.472;6.466;2023-03-14T15:00:01;10.00;;;1.95;;
21148;SDS011;10732;51.472;6.466;2023-03-14T15:02:47;8.65;;;1.85;;
21148;SDS011;10732;51.472;6.466;2023-03-14T15:05:16;7.32;;;1.80;;
21148;SDS011;10732;51.472;6.466;2023-03-14T15:07:50;8.07;;;2.17;;
21148;SDS011;10732;51.472;6.466;2023-03-14T15:10:17;9.52;;;1.98;;
21148;SDS011;10732;51.472;6.466;2023-03-14T15:12:48;10.15;;;1.73;;
21148;SDS011;10732;51.472;6.466;2023-03-14T15:15:14;10.75;;;2.17;;
21148;SDS011;10732;51.472;6.466;2023-03-14T15:17:40;8.05;;;1.60;;
21148;SDS011;10732;51.472;6.466;2023-03-14T15:20:06;8.40;;;1.80;;
21148;SDS011;10732;51.472;6.466;2023-03-14T15:22:38;11.45;;;1.98;;
21148;SDS011;10732;51.472;6.466;2023-03-14T15:25:04;5.20;;;1.73;;
21148;SDS011;10732;51.472;6.466;2023-03-14T15:27:31;7.03;;;1.85;;
21148;SDS011;10732;51.472;6.466;2023-03-14T15:29:57;4.32;;;1.30;;
21148;SDS011;10732;51.472;6.466;2023-03-14T15:32:24;5.40;;;1.65;;
21148;SDS011;10732;51.472;6.466;2023-03-14T15:34:52;6.03;;;1.67;;
21148;SDS011;10732;51.472;6.466;2023-03-14T15:37:19;9.27;;;2.30;;
21148;SDS011;10732;51.472;6.466;2023-03-14T15:39:45;8.35;;;1.38;;
21148;SDS011;10732;51.472;6.466;2023-03-14T15:42:11;8.45;;;1.75;;
21148;SDS011;10732;51.472;6.466;2023-03-14T15:44:36;8.40;;;1.65;;
21148;SDS011;10732;51.472;6.466;2023-03-14T15:47:02;5.85;;;1.50;;
21148;SDS011;10732;51.472;6.466;2023-03-14T15:49:28;6.07;;;2.00;;
21148;SDS011;10732;51.472;6.466;2023-03-14T15:51:54;5.22;;;1.50;;
21148;SDS011;10732;51.472;6.466;2023-03-14T15:54:19;5.50;;;1.73;;
21148;SDS011;10732;51.472;6.466;2023-03-14T15:56:45;6.10;;;1.45;;
21148;SDS011;10732;51.472;6.466;2023-03-14T15:59:11;11.93;;;1.60;;